createdAt,value
2022-12-08T00:00:53.551Z,96564.88
2022-12-08T00:03:21.313Z,96570.56
2022-12-08T00:06:07.625Z,96556.38
2022-12-08T00:08:53.592Z,96565.56
2022-12-08T00:11:21.350Z,96561.31
2022-12-08T00:13:50.278Z,96565.69
2022-12-08T00:16:17.889Z,96556.81
2022-12-08T00:18:45.643Z,96568.97
2022-12-08T00:21:13.210Z,96557.75
2022-12-08T00:23:40.874Z,96556.81
2022-12-08T00:26:08.622Z,96553.50
2022-12-08T00:28:36.478Z,96551.88
2022-12-08T00:31:10.210Z,96548.31
2022-12-08T00:33:38.162Z,96547.72
2022-12-08T00:36:08.961Z,96546.78
2022-12-08T00:38:36.904Z,96547.19
2022-12-08T00:41:05.190Z,96547.88
2022-12-08T00:43:32.747Z,96540.06
2022-12-08T00:46:00.379Z,96553.50
2022-12-08T00:48:29.430Z,96547.22
2022-12-08T00:50:57.034Z,96549.38
2022-12-08T00:53:24.666Z,96546.91
2022-12-08T00:55:52.250Z,96548.81
2022-12-08T00:58:19.847Z,96545.28
2022-12-08T01:00:47.516Z,96539.69
2022-12-08T01:03:15.198Z,96543.38
2022-12-08T01:05:44.511Z,96541.97
2022-12-08T01:08:12.146Z,96534.19
2022-12-08T01:10:39.773Z,96543.28
2022-12-08T01:13:07.358Z,96543.28
2022-12-08T01:15:35.037Z,96548.81
2022-12-08T01:18:03.344Z,96549.06
2022-12-08T01:20:30.940Z,96549.88
2022-12-08T01:22:59.857Z,96547.19
2022-12-08T01:25:27.488Z,96550.91
2022-12-08T01:27:55.882Z,96551.63
2022-12-08T01:30:23.482Z,96549.25
2022-12-08T01:32:51.072Z,96542.53
2022-12-08T01:35:19.066Z,96545.03
2022-12-08T01:37:46.632Z,96545.97
2022-12-08T01:40:15.646Z,96549.63
2022-12-08T01:42:43.226Z,96537.22
2022-12-08T01:45:15.775Z,96532.56
2022-12-08T01:47:45.204Z,96539.69
2022-12-08T01:50:14.955Z,96538.88
2022-12-08T01:52:45.461Z,96525.88
2022-12-08T01:55:17.937Z,96529.03
2022-12-08T01:57:48.515Z,96531.50
2022-12-08T02:00:18.644Z,96520.53
2022-12-08T02:02:54.958Z,96531.06
2022-12-08T02:05:24.644Z,96525.97
2022-12-08T02:07:53.438Z,96519.72
2022-12-08T02:10:26.717Z,96517.94
2022-12-08T02:12:55.954Z,96520.09
2022-12-08T02:15:27.439Z,96509.31
2022-12-08T02:18:02.367Z,96508.38
2022-12-08T02:20:46.874Z,96497.72
2022-12-08T02:23:23.555Z,96503.97
2022-12-08T02:26:07.845Z,96501.63
2022-12-08T02:29:14.714Z,96506.28
2022-12-08T02:31:52.981Z,96496.56
2022-12-08T02:34:28.430Z,96483.16
2022-12-08T02:37:01.297Z,96487.66
2022-12-08T02:39:36.352Z,96486.81
2022-12-08T02:42:10.978Z,96493.78
2022-12-08T02:44:40.863Z,96491.91
2022-12-08T02:47:11.105Z,96488.19
2022-12-08T02:49:40.672Z,96477.38
2022-12-08T02:52:29.300Z,96476.66
2022-12-08T02:54:58.950Z,96483.88
2022-12-08T02:57:32.959Z,96475.28
2022-12-08T03:00:08.891Z,96477.19
2022-12-08T03:02:50.584Z,96469.63
2022-12-08T03:05:28.925Z,96466.59
2022-12-08T03:08:01.866Z,96464.22
2022-12-08T03:10:34.044Z,96466.00
2022-12-08T03:13:05.787Z,96460.22
2022-12-08T03:15:33.996Z,96457.63
2022-12-08T03:18:01.818Z,96456.94
2022-12-08T03:20:32.397Z,96452.84
2022-12-08T03:23:01.530Z,96451.63
2022-12-08T03:25:32.054Z,96451.63
2022-12-08T03:28:00.670Z,96454.09
2022-12-08T03:30:28.880Z,96447.13
2022-12-08T03:33:00.685Z,96442.63
2022-12-08T03:35:32.685Z,96447.56
2022-12-08T03:38:04.883Z,96444.28
2022-12-08T03:40:32.562Z,96444.28
2022-12-08T03:43:00.183Z,96443.06
2022-12-08T03:45:27.803Z,96438.13
2022-12-08T03:47:55.389Z,96443.66
2022-12-08T03:50:23.085Z,96445.28
2022-12-08T03:52:52.127Z,96453.53
2022-12-08T03:55:21.374Z,96448.66
2022-12-08T03:57:48.954Z,96442.75
2022-12-08T04:00:17.920Z,96445.09
2022-12-08T04:02:45.591Z,96439.66
2022-12-08T04:05:13.198Z,96447.19
2022-12-08T04:07:40.843Z,96435.31
2022-12-08T04:10:11.143Z,96437.66
2022-12-08T04:12:38.780Z,96433.84
2022-12-08T04:15:07.261Z,96439.00
2022-12-08T04:17:34.812Z,96437.06
2022-12-08T04:20:02.859Z,96433.34
2022-12-08T04:22:30.745Z,96436.13
2022-12-08T04:24:58.524Z,96444.69
2022-12-08T04:27:27.525Z,96434.53
2022-12-08T04:29:55.129Z,96443.72
2022-12-08T04:32:23.232Z,96433.31
2022-12-08T04:34:51.482Z,96438.84
2022-12-08T04:37:19.043Z,96438.94
2022-12-08T04:39:46.608Z,96430.13
2022-12-08T04:42:14.225Z,96434.78
2022-12-08T04:44:43.140Z,96439.09
2022-12-08T04:47:10.897Z,96441.28
2022-12-08T04:49:38.519Z,96434.53
2022-12-08T04:52:06.445Z,96442.13
2022-12-08T04:54:34.193Z,96438.66
2022-12-08T04:57:01.761Z,96433.75
2022-12-08T04:59:29.343Z,96442.81
2022-12-08T05:01:58.372Z,96435.19
2022-12-08T05:04:26.326Z,96439.00
2022-12-08T05:06:53.890Z,96436.03
2022-12-08T05:09:21.468Z,96438.47
2022-12-08T05:11:49.429Z,96437.84
2022-12-08T05:14:17.997Z,96434.63
2022-12-08T05:16:46.269Z,96430.47
2022-12-08T05:19:16.079Z,96423.66
2022-12-08T05:21:44.325Z,96417.72
2022-12-08T05:24:11.957Z,96416.13
2022-12-08T05:26:39.569Z,96419.50
2022-12-08T05:29:07.276Z,96416.44
2022-12-08T05:31:35.054Z,96416.81
2022-12-08T05:34:03.559Z,96402.94
2022-12-08T05:36:32.636Z,96410.03
2022-12-08T05:39:00.225Z,96416.19
2022-12-08T05:41:28.479Z,96411.09
2022-12-08T05:43:56.060Z,96414.53
2022-12-08T05:46:23.987Z,96414.06
2022-12-08T05:48:51.729Z,96411.47
2022-12-08T05:51:20.941Z,96410.06
2022-12-08T05:53:50.808Z,96415.63
2022-12-08T05:56:18.482Z,96416.44
2022-12-08T05:58:46.423Z,96414.00
2022-12-08T06:01:20.568Z,96412.59
2022-12-08T06:03:48.191Z,96405.16
2022-12-08T06:06:15.837Z,96409.75
2022-12-08T06:08:43.525Z,96409.31
2022-12-08T06:11:18.839Z,96412.28
2022-12-08T06:13:46.418Z,96402.97
2022-12-08T06:16:14.080Z,96401.81
2022-12-08T06:18:41.736Z,96399.47
2022-12-08T06:21:11.974Z,96394.63
2022-12-08T06:23:39.787Z,96399.72
2022-12-08T06:26:09.725Z,96403.25
2022-12-08T06:28:39.594Z,96403.59
2022-12-08T06:31:09.177Z,96403.97
2022-12-08T06:33:37.416Z,96415.16
2022-12-08T06:36:05.247Z,96412.09
2022-12-08T06:38:32.821Z,96407.50
2022-12-08T06:41:00.979Z,96411.75
2022-12-08T06:43:28.757Z,96410.00
2022-12-08T06:45:57.722Z,96413.53
2022-12-08T06:48:25.290Z,96410.81
2022-12-08T06:50:52.950Z,96410.00
2022-12-08T06:53:21.737Z,96412.47
2022-12-08T06:56:00.525Z,96422.81
2022-12-08T06:58:28.126Z,96423.06
2022-12-08T07:00:57.118Z,96417.66
2022-12-08T07:03:24.717Z,96418.25
2022-12-08T07:06:01.759Z,96418.69
2022-12-08T07:08:31.330Z,96417.75
2022-12-08T07:10:58.965Z,96424.09
2022-12-08T07:13:26.588Z,96423.16
2022-12-08T07:15:54.163Z,96424.56
2022-12-08T07:18:23.185Z,96418.91
2022-12-08T07:20:50.774Z,96425.97
2022-12-08T07:23:18.346Z,96421.94
2022-12-08T07:25:45.948Z,96425.22
2022-12-08T07:28:13.636Z,96416.50
2022-12-08T07:30:41.298Z,96421.94
2022-12-08T07:33:08.985Z,96418.63
2022-12-08T07:35:38.278Z,96411.78
2022-12-08T07:38:05.931Z,96414.59
2022-12-08T07:40:33.500Z,96415.44
2022-12-08T07:43:01.048Z,96414.75
2022-12-08T07:45:31.718Z,96409.91
2022-12-08T07:47:59.729Z,96418.75
2022-12-08T07:50:27.433Z,96415.44
2022-12-08T07:52:56.348Z,96418.75
2022-12-08T07:55:24.005Z,96409.69
2022-12-08T07:57:51.630Z,96417.03
2022-12-08T08:00:20.035Z,96411.69
2022-12-08T08:02:47.709Z,96409.09
2022-12-08T08:05:15.349Z,96402.97
2022-12-08T08:07:43.714Z,96414.28
2022-12-08T08:10:13.565Z,96415.84
2022-12-08T08:12:41.182Z,96417.22
2022-12-08T08:15:09.823Z,96424.03
2022-12-08T08:17:38.582Z,96423.19
2022-12-08T08:20:07.922Z,96416.38
2022-12-08T08:22:36.678Z,96415.47
2022-12-08T08:25:05.612Z,96414.88
2022-12-08T08:27:34.596Z,96413.03
2022-12-08T08:30:03.079Z,96418.09
2022-12-08T08:32:33.920Z,96417.63
2022-12-08T08:35:01.757Z,96422.06
2022-12-08T08:37:29.445Z,96418.31
2022-12-08T08:39:57.549Z,96419.13
2022-12-08T08:42:25.111Z,96417.06
2022-12-08T08:44:54.086Z,96420.41
2022-12-08T08:47:21.658Z,96419.88
2022-12-08T08:49:49.275Z,96413.75
2022-12-08T08:52:16.884Z,96417.63
2022-12-08T08:54:44.485Z,96414.88
2022-12-08T08:57:12.083Z,96417.66
2022-12-08T08:59:39.768Z,96418.53
2022-12-08T09:02:12.267Z,96420.66
2022-12-08T09:04:39.899Z,96430.31
2022-12-08T09:07:07.586Z,96423.22
2022-12-08T09:09:35.254Z,96420.63
2022-12-08T09:12:02.809Z,96426.75
2022-12-08T09:14:30.452Z,96417.00
2022-12-08T09:16:58.072Z,96420.44
2022-12-08T09:19:27.012Z,96419.59
2022-12-08T09:21:54.645Z,96421.00
2022-12-08T09:24:23.135Z,96426.44
2022-12-08T09:26:51.184Z,96431.53
2022-12-08T09:29:18.768Z,96420.63
2022-12-08T09:31:46.396Z,96420.38
2022-12-08T09:34:14.361Z,96413.59
2022-12-08T09:36:43.876Z,96407.66
2022-12-08T09:39:11.491Z,96410.16
2022-12-08T09:41:48.344Z,96398.19
2022-12-08T09:44:39.177Z,96404.69
2022-12-08T09:47:11.353Z,96403.53
2022-12-08T09:49:40.898Z,96398.78
2022-12-08T09:52:14.643Z,96393.09
2022-12-08T09:54:42.178Z,96394.78
2022-12-08T09:57:16.047Z,96387.28
2022-12-08T09:59:46.499Z,96383.09
2022-12-08T10:02:22.493Z,96383.09
2022-12-08T10:04:50.254Z,96385.72
2022-12-08T10:07:22.354Z,96380.47
2022-12-08T10:09:56.579Z,96372.97
2022-12-08T10:12:28.177Z,96368.44
2022-12-08T10:14:59.689Z,96369.56
2022-12-08T10:17:29.034Z,96360.88
2022-12-08T10:20:00.498Z,96359.28
2022-12-08T10:22:39.849Z,96354.19
2022-12-08T10:25:15.060Z,96354.31
2022-12-08T10:27:42.695Z,96352.66
2022-12-08T10:30:13.015Z,96347.34
2022-12-08T10:32:40.957Z,96352.31
2022-12-08T10:35:11.216Z,96349.31
2022-12-08T10:37:40.860Z,96351.50
2022-12-08T10:40:12.168Z,96339.13
2022-12-08T10:42:42.020Z,96333.38
2022-12-08T10:45:31.154Z,96334.91
2022-12-08T10:48:01.756Z,96338.59
2022-12-08T10:50:32.301Z,96334.34
2022-12-08T10:53:02.550Z,96322.56
2022-12-08T10:55:30.958Z,96328.75
2022-12-08T10:57:58.606Z,96324.91
2022-12-08T11:00:28.428Z,96323.81
2022-12-08T11:03:01.506Z,96319.53
2022-12-08T11:05:34.474Z,96318.44
2022-12-08T11:08:04.581Z,96308.72
2022-12-08T11:10:35.813Z,96313.75
2022-12-08T11:13:05.940Z,96307.34
2022-12-08T11:15:37.176Z,96296.81
2022-12-08T11:18:11.983Z,96296.09
2022-12-08T11:20:42.194Z,96292.81
2022-12-08T11:23:23.275Z,96286.06
2022-12-08T11:25:51.580Z,96292.22
2022-12-08T11:28:24.148Z,96284.31
2022-12-08T11:30:57.598Z,96268.50
2022-12-08T11:33:26.633Z,96272.69
2022-12-08T11:35:59.569Z,96265.56
2022-12-08T11:38:29.233Z,96269.91
2022-12-08T11:40:59.813Z,96263.91
2022-12-08T11:43:31.839Z,96257.88
2022-12-08T11:46:01.930Z,96267.53
2022-12-08T11:48:35.178Z,96252.44
2022-12-08T11:51:06.729Z,96258.16
2022-12-08T11:53:44.176Z,96253.31
2022-12-08T11:56:18.494Z,96252.34
2022-12-08T11:58:49.811Z,96239.94
2022-12-08T12:01:20.458Z,96244.03
2022-12-08T12:03:53.476Z,96246.69
2022-12-08T12:06:53.036Z,96243.22
2022-12-08T12:09:26.817Z,96250.13
2022-12-08T12:12:19.838Z,96245.13
2022-12-08T12:15:18.533Z,96245.34
2022-12-08T12:17:48.654Z,96246.47
2022-12-08T12:20:20.037Z,96243.84
2022-12-08T12:22:50.662Z,96232.19
2022-12-08T12:25:23.021Z,96231.97
2022-12-08T12:27:57.197Z,96233.53
2022-12-08T12:30:26.682Z,96222.97
2022-12-08T12:32:56.653Z,96211.84
2022-12-08T12:35:32.187Z,96218.13
2022-12-08T12:38:04.585Z,96218.25
2022-12-08T12:40:40.841Z,96214.97
2022-12-08T12:43:25.458Z,96212.44
2022-12-08T12:46:31.511Z,96216.75
2022-12-08T12:49:48.653Z,96211.88
2022-12-08T12:52:37.619Z,96205.44
2022-12-08T12:55:23.016Z,96212.06
2022-12-08T12:57:54.160Z,96208.91
2022-12-08T13:00:23.151Z,96208.13
2022-12-08T13:02:52.007Z,96205.00
2022-12-08T13:05:21.629Z,96203.13
2022-12-08T13:07:52.405Z,96208.88
2022-12-08T13:10:22.850Z,96202.09
2022-12-08T13:13:06.943Z,96200.75
2022-12-08T13:15:37.000Z,96205.41
2022-12-08T13:18:05.355Z,96203.47
2022-12-08T13:20:41.946Z,96204.03
2022-12-08T13:23:26.747Z,96208.75
2022-12-08T13:26:10.697Z,96203.66
2022-12-08T13:29:11.743Z,96209.56
2022-12-08T13:31:48.355Z,96210.66
2022-12-08T13:34:21.347Z,96199.69
2022-12-08T13:37:08.123Z,96205.47
2022-12-08T13:39:43.616Z,96201.75
2022-12-08T13:42:18.322Z,96196.53
2022-12-08T13:45:24.212Z,96199.31
2022-12-08T13:48:05.981Z,96210.09
2022-12-08T13:59:08.796Z,96221.06
2022-12-08T14:01:43.148Z,96222.03
2022-12-08T14:04:47.479Z,96216.97
2022-12-08T14:07:04.062Z,96218.34
2022-12-08T14:09:35.293Z,96214.91
2022-12-08T14:12:04.927Z,96216.44
2022-12-08T14:15:01.242Z,96216.72
2022-12-08T14:17:23.039Z,96214.66
2022-12-08T14:19:57.337Z,96209.56
2022-12-08T14:22:25.358Z,96208.22
2022-12-08T14:24:54.919Z,96204.13
2022-12-08T14:27:24.694Z,96207.94
2022-12-08T14:29:53.322Z,96204.38
2022-12-08T14:32:28.218Z,96203.13
2022-12-08T14:34:59.537Z,96208.88
2022-12-08T14:37:28.372Z,96212.03
2022-12-08T14:39:59.554Z,96210.66
2022-12-08T14:42:28.506Z,96208.59
2022-12-08T14:44:58.040Z,96203.91
2022-12-08T14:47:30.197Z,96210.31
2022-12-08T14:49:59.111Z,96201.41
2022-12-08T14:52:26.800Z,96197.72
2022-12-08T14:54:54.797Z,96201.25
2022-12-08T14:57:22.697Z,96193.06
2022-12-08T14:59:50.515Z,96189.47
2022-12-08T15:02:27.672Z,96184.91
2022-12-08T15:05:00.000Z,96188.31
2022-12-08T15:07:29.767Z,96191.16
2022-12-08T15:10:21.157Z,96193.75
2022-12-08T15:13:00.753Z,96194.97
2022-12-08T15:15:29.536Z,96196.31
2022-12-08T15:18:04.995Z,96183.03
2022-12-08T15:20:41.544Z,96178.09
2022-12-08T15:23:21.262Z,96184.38
2022-12-08T15:25:49.285Z,96186.81
2022-12-08T15:28:18.508Z,96185.59
2022-12-08T15:30:46.156Z,96191.03
2022-12-08T15:33:14.480Z,96202.63
2022-12-08T15:35:43.542Z,96196.84
2022-12-08T15:38:18.269Z,96199.72
2022-12-08T15:40:45.893Z,96194.63
2022-12-08T15:43:13.782Z,96194.34
2022-12-08T15:45:50.550Z,96190.09
2022-12-08T15:48:26.883Z,96199.91
2022-12-08T15:50:56.402Z,96202.50
2022-12-08T15:53:24.385Z,96199.03
2022-12-08T15:58:56.483Z,96205.09
2022-12-08T16:01:25.542Z,96207.56
2022-12-08T16:07:20.148Z,96218.13
2022-12-08T16:09:33.334Z,96221.28
2022-12-08T16:12:18.983Z,96219.53
2022-12-08T16:15:48.604Z,96210.53
2022-12-08T16:17:35.209Z,96218.13
2022-12-08T16:20:03.633Z,96221.28
2022-12-08T16:25:22.078Z,96214.78
2022-12-08T16:28:02.828Z,96219.44
2022-12-08T16:30:36.536Z,96216.31
2022-12-08T16:33:04.189Z,96231.53
2022-12-08T16:35:32.296Z,96226.44
2022-12-08T16:38:01.246Z,96227.59
2022-12-08T16:40:28.818Z,96229.94
2022-12-08T16:42:55.496Z,96225.88
2022-12-08T16:45:25.198Z,96223.81
2022-12-08T16:47:55.222Z,96224.06
2022-12-08T16:50:25.017Z,96233.09
2022-12-08T16:52:57.959Z,96223.66
2022-12-08T16:55:27.323Z,96217.25
2022-12-08T16:57:55.035Z,96218.78
2022-12-08T17:00:24.659Z,96218.19
2022-12-08T17:02:52.726Z,96222.31
2022-12-08T17:05:22.748Z,96223.84
2022-12-08T17:07:52.312Z,96214.69
2022-12-08T17:10:22.945Z,96215.53
2022-12-08T17:12:52.397Z,96216.22
2022-12-08T17:15:22.451Z,96220.41
2022-12-08T17:17:50.238Z,96218.78
2022-12-08T17:20:20.113Z,96210.03
2022-12-08T17:22:48.040Z,96214.00
2022-12-08T17:25:16.015Z,96208.00
2022-12-08T17:27:43.883Z,96205.00
2022-12-08T17:30:15.714Z,96199.81
2022-12-08T17:32:43.829Z,96201.19
2022-12-08T17:35:11.971Z,96208.47
2022-12-08T17:37:39.540Z,96204.66
2022-12-08T17:40:08.890Z,96197.41
2022-12-08T17:42:37.957Z,96203.56
2022-12-08T17:45:06.620Z,96202.06
2022-12-08T17:47:35.966Z,96208.69
2022-12-08T17:50:04.313Z,96197.28
2022-12-08T17:52:32.328Z,96201.81
2022-12-08T17:54:59.881Z,96210.69
2022-12-08T17:57:27.749Z,96207.00
2022-12-08T17:59:55.410Z,96205.81
2022-12-08T18:02:23.228Z,96207.19
2022-12-08T18:04:52.229Z,96210.84
2022-12-08T18:07:19.839Z,96212.81
2022-12-08T18:09:47.449Z,96215.16
2022-12-08T18:12:19.270Z,96210.34
2022-12-08T18:14:50.345Z,96216.53
2022-12-08T18:17:18.104Z,96212.16
2022-12-08T18:19:45.731Z,96198.63
2022-12-08T18:22:16.011Z,96201.75
2022-12-08T18:24:44.107Z,96194.91
2022-12-08T18:27:11.700Z,96193.00
2022-12-08T18:29:39.267Z,96184.50
2022-12-08T18:32:06.998Z,96200.22
2022-12-08T18:34:34.986Z,96190.44
2022-12-08T18:37:03.117Z,96182.88
2022-12-08T18:39:33.421Z,96185.66
2022-12-08T18:42:02.599Z,96190.88
2022-12-08T18:44:31.066Z,96189.50
2022-12-08T18:46:58.875Z,96202.25
2022-12-08T18:49:26.535Z,96192.63
2022-12-08T18:51:54.116Z,96177.34
2022-12-08T18:54:27.748Z,96181.97
2022-12-08T18:57:06.172Z,96171.19
2022-12-08T18:59:34.262Z,96171.06
2022-12-08T19:02:01.960Z,96176.09
2022-12-08T19:04:31.890Z,96181.00
2022-12-08T19:07:01.218Z,96179.91
2022-12-08T19:09:29.017Z,96186.22
2022-12-08T19:11:57.191Z,96200.50
2022-12-08T19:14:28.539Z,96198.78
2022-12-08T19:16:56.333Z,96197.97
2022-12-08T19:19:23.974Z,96195.53
2022-12-08T19:21:51.639Z,96198.69
2022-12-08T19:24:19.291Z,96201.31
2022-12-08T19:26:47.711Z,96196.63
2022-12-08T19:29:15.328Z,96194.34
2022-12-08T19:31:44.612Z,96196.28
2022-12-08T19:34:14.194Z,96189.84
2022-12-08T19:36:43.213Z,96189.84
2022-12-08T19:39:41.619Z,96188.47
2022-12-08T19:42:32.193Z,96178.75
2022-12-08T19:45:03.522Z,96194.34
2022-12-08T19:47:32.799Z,96192.66
2022-12-08T19:50:14.352Z,96185.69
2022-12-08T19:52:42.056Z,96193.59
2022-12-08T19:55:10.319Z,96188.66
2022-12-08T19:57:38.316Z,96183.75
2022-12-08T20:00:08.031Z,96175.28
2022-12-08T20:02:37.547Z,96188.41
2022-12-08T20:05:05.642Z,96181.97
2022-12-08T20:07:33.509Z,96173.50
2022-12-08T20:10:02.430Z,96171.31
2022-12-08T20:12:30.225Z,96176.91
2022-12-08T20:14:58.194Z,96170.50
2022-12-08T20:17:25.777Z,96165.84
2022-12-08T20:19:54.780Z,96172.28
2022-12-08T20:22:22.367Z,96170.13
2022-12-08T20:24:57.240Z,96172.59
2022-12-08T20:27:29.011Z,96176.16
2022-12-08T20:29:56.933Z,96171.88
2022-12-08T20:32:24.564Z,96169.84
2022-12-08T20:34:52.244Z,96173.41
2022-12-08T20:37:21.206Z,96174.91
2022-12-08T20:39:48.855Z,96182.16
2022-12-08T20:42:16.489Z,96177.53
2022-12-08T20:44:44.443Z,96182.84
2022-12-08T20:47:12.984Z,96187.25
2022-12-08T20:49:40.722Z,96179.00
2022-12-08T20:52:08.592Z,96183.78
2022-12-08T20:54:38.118Z,96187.66
2022-12-08T20:57:06.048Z,96183.53
2022-12-08T20:59:33.949Z,96179.88
2022-12-08T21:02:01.929Z,96181.50
2022-12-08T21:04:29.869Z,96180.94
2022-12-08T21:06:57.633Z,96173.44
2022-12-08T21:09:25.312Z,96177.00
2022-12-08T21:11:54.612Z,96172.88
2022-12-08T21:14:22.495Z,96171.25
2022-12-08T21:16:50.828Z,96171.53
2022-12-08T21:19:19.914Z,96176.16
2022-12-08T21:21:48.235Z,96165.88
2022-12-08T21:24:16.681Z,96155.78
2022-12-08T21:26:44.514Z,96168.75
2022-12-08T21:29:14.034Z,96167.09
2022-12-08T21:31:41.818Z,96163.09
2022-12-08T21:34:11.171Z,96168.72
2022-12-08T21:36:39.128Z,96163.78
2022-12-08T21:39:12.698Z,96166.78
2022-12-08T21:41:57.984Z,96170.31
2022-12-08T21:44:27.146Z,96165.56
2022-12-08T21:46:54.819Z,96165.00
2022-12-08T21:49:22.918Z,96177.88
2022-12-08T21:51:50.726Z,96176.09
2022-12-08T21:54:19.388Z,96177.63
2022-12-08T21:56:47.664Z,96180.91
2022-12-08T21:59:15.499Z,96172.00
2022-12-08T22:01:44.750Z,96177.06
2022-12-08T22:04:13.688Z,96178.00
2022-12-08T22:06:41.278Z,96180.34
2022-12-08T22:09:11.770Z,96173.22
2022-12-08T22:11:39.562Z,96171.59
2022-12-08T22:14:12.466Z,96173.34
2022-12-08T22:16:42.280Z,96168.03
2022-12-08T22:19:12.484Z,96158.47
2022-12-08T22:21:40.410Z,96160.13
2022-12-08T22:24:09.005Z,96148.63
2022-12-08T22:26:36.839Z,96146.81
2022-12-08T22:29:04.839Z,96151.06
2022-12-08T22:31:32.886Z,96149.88
2022-12-08T22:34:01.354Z,96149.88
2022-12-08T22:36:30.600Z,96143.47
2022-12-08T22:38:58.349Z,96152.34
2022-12-08T22:41:26.077Z,96146.06
2022-12-08T22:43:53.851Z,96150.72
2022-12-08T22:46:23.658Z,96148.53
2022-12-08T22:48:51.939Z,96145.50
2022-12-08T22:51:20.437Z,96146.63
2022-12-08T22:53:49.555Z,96143.47
2022-12-08T22:56:18.250Z,96142.09
2022-12-08T22:58:46.444Z,96141.66
2022-12-08T23:01:23.722Z,96143.28
2022-12-08T23:03:51.425Z,96131.25
2022-12-08T23:06:19.778Z,96129.19
2022-12-08T23:08:49.135Z,96137.13
2022-12-08T23:11:17.014Z,96146.81
2022-12-08T23:13:44.995Z,96147.41
2022-12-08T23:16:13.837Z,96141.38
2022-12-08T23:18:43.541Z,96145.22
2022-12-08T23:21:13.830Z,96143.97
2022-12-08T23:23:41.970Z,96147.16
2022-12-08T23:26:17.027Z,96146.03
2022-12-08T23:28:44.853Z,96142.22
2022-12-08T23:31:12.627Z,96139.88
2022-12-08T23:33:40.487Z,96138.78
2022-12-08T23:36:08.663Z,96132.94
2022-12-08T23:38:36.400Z,96129.66
2022-12-08T23:41:05.483Z,96122.13
2022-12-08T23:43:35.226Z,96121.56
2022-12-08T23:46:03.066Z,96116.78
2022-12-08T23:48:34.480Z,96113.09
2022-12-08T23:51:02.304Z,96110.22
2022-12-08T23:53:30.757Z,96112.66
2022-12-08T23:56:02.300Z,96105.00
2022-12-08T23:58:31.250Z,96101.03
